Time;durP1;ratioP1;P1;durP2;ratioP2;P2;SDS_P1;SDS_P2;PMS_P1;PMS_P2;Temp;Humidity;BMP_temperature;BMP_pressure;BME280_temperature;BME280_humidity;BME280_pressure;Samples;Min_cycle;Max_cycle;Signal;HPM_P1;HPM_P2
2024/02/26 00:01:27;;;;;;;;;5.00;5.00;;;;;10.34;91.08;98227.94;5065144;27;45670;-62
2024/02/26 00:03:53;;;;;;;;;9.25;8.00;;;;;10.37;91.18;98232.13;5073464;28;53433;-62
2024/02/26 00:06:19;;;;;;;;;10.00;6.00;;;;;10.37;91.25;98234.72;5071970;28;45229;-61
2024/02/26 00:08:45;;;;;;;;;8.75;6.00;;;;;10.37;91.30;98237.34;5068609;27;45622;-62
2024/02/26 00:11:10;;;;;;;;;11.25;7.00;;;;;10.34;91.28;98238.41;5077206;27;45381;-62
2024/02/26 00:13:36;;;;;;;;;7.75;6.50;;;;;10.32;90.94;98236.81;5073235;27;71926;-61
2024/02/26 00:16:03;;;;;;;;;7.00;6.00;;;;;10.26;91.17;98238.84;5063624;28;45610;-62
2024/02/26 00:18:28;;;;;;;;;6.50;6.00;;;;;10.24;91.07;98238.13;5079506;27;45560;-61
2024/02/26 00:20:54;;;;;;;;;6.25;5.50;;;;;10.19;91.19;98245.41;5069300;27;75502;-62
2024/02/26 00:23:19;;;;;;;;;6.25;6.25;;;;;10.17;91.24;98252.53;5066442;27;73135;-62
2024/02/26 00:25:44;;;;;;;;;5.75;5.50;;;;;10.12;91.60;98259.00;5071876;27;69837;-62
2024/02/26 00:28:10;;;;;;;;;5.50;5.25;;;;;10.11;91.84;98259.91;5066960;27;46637;-62
2024/02/26 00:30:35;;;;;;;;;6.00;5.00;;;;;10.12;92.10;98259.00;5066276;27;46192;-62
2024/02/26 00:33:01;;;;;;;;;9.50;9.50;;;;;10.12;92.20;98257.22;5079304;27;70598;-63
2024/02/26 00:35:26;;;;;;;;;9.00;6.00;;;;;10.14;92.33;98252.72;5076809;28;45570;-62
2024/02/26 00:37:52;;;;;;;;;8.25;6.00;;;;;10.19;92.19;98261.09;5070799;27;45446;-62
2024/02/26 00:40:17;;;;;;;;;7.50;6.50;;;;;10.23;92.71;98256.50;5075859;27;48575;-62
2024/02/26 00:42:45;;;;;;;;;5.00;4.50;;;;;10.27;92.19;98253.59;5070317;27;67328;-62
2024/02/26 00:45:12;;;;;;;;;6.00;5.50;;;;;10.31;92.22;98259.50;5076810;27;45489;-62
2024/02/26 00:47:37;;;;;;;;;5.75;5.75;;;;;10.35;92.28;98265.38;5073831;27;45642;-62
2024/02/26 00:50:02;;;;;;;;;9.25;5.25;;;;;10.39;92.53;98270.31;5071407;27;46286;-61
2024/02/26 00:52:28;;;;;;;;;6.00;4.00;;;;;10.43;92.56;98270.94;5076288;28;46807;-61
2024/02/26 00:54:53;;;;;;;;;5.00;5.00;;;;;10.41;92.35;98259.72;5067998;28;68122;-62
2024/02/26 00:57:18;;;;;;;;;7.75;6.00;;;;;10.49;92.05;98275.75;5061624;28;45632;-62
2024/02/26 00:59:44;;;;;;;;;5.00;3.25;;;;;10.52;91.98;98278.16;5071064;27;66010;-61
2024/02/26 01:02:09;;;;;;;;;9.25;6.00;;;;;10.53;92.21;98277.22;5066384;28;67467;-60
2024/02/26 01:04:34;;;;;;;;;6.50;4.25;;;;;10.58;92.22;98282.16;5072242;27;67986;-58
2024/02/26 01:07:00;;;;;;;;;5.00;5.00;;;;;10.61;91.83;98281.94;5065276;27;70560;-62
2024/02/26 01:09:25;;;;;;;;;5.50;5.00;;;;;10.64;91.90;98289.56;5071550;28;73525;-62
2024/02/26 01:11:50;;;;;;;;;6.00;3.50;;;;;10.68;91.80;98288.44;5069426;28;72398;-62
2024/02/26 01:14:16;;;;;;;;;4.00;4.00;;;;;10.69;92.12;98282.25;5072875;28;45497;-62
2024/02/26 01:16:41;;;;;;;;;6.00;4.50;;;;;10.70;92.06;98289.19;5066424;27;47864;-62
2024/02/26 01:19:06;;;;;;;;;5.00;4.00;;;;;10.74;92.24;98288.03;5076741;27;69635;-61
2024/02/26 01:21:32;;;;;;;;;7.00;4.00;;;;;10.76;92.12;98287.94;5077681;27;67706;-62
2024/02/26 01:23:57;;;;;;;;;5.25;5.00;;;;;10.78;92.03;98292.13;5079551;27;46259;-62
2024/02/26 01:26:22;;;;;;;;;6.75;5.25;;;;;10.81;91.89;98296.31;5069395;27;57117;-62
2024/02/26 01:28:48;;;;;;;;;4.00;4.00;;;;;10.81;91.91;98293.69;5069754;27;45981;-62
2024/02/26 01:31:13;;;;;;;;;4.00;2.25;;;;;10.81;91.84;98296.31;5073790;27;45832;-61
2024/02/26 01:33:39;;;;;;;;;4.75;4.25;;;;;10.85;91.56;98307.41;5063958;27;48348;-63
2024/02/26 01:36:04;;;;;;;;;39.00;34.00;;;;;10.86;91.81;98306.47;5068726;27;71929;-62
2024/02/26 01:38:29;;;;;;;;;15.25;9.00;;;;;10.88;91.44;98301.97;5073021;27;47121;-62
2024/02/26 01:40:55;;;;;;;;;9.25;5.00;;;;;10.89;91.60;98301.88;5072606;27;45780;-62
2024/02/26 01:43:20;;;;;;;;;4.25;4.00;;;;;10.91;91.48;98299.97;5070805;27;67550;-62
2024/02/26 01:45:45;;;;;;;;;4.25;4.00;;;;;10.93;91.22;98303.31;5068549;28;57838;-62
2024/02/26 01:48:11;;;;;;;;;6.50;4.00;;;;;10.96;91.80;98307.50;5068585;27;50151;-62
2024/02/26 01:50:37;;;;;;;;;4.00;4.00;;;;;10.96;91.42;98302.28;5073548;27;45394;-61
2024/02/26 01:53:03;;;;;;;;;3.25;3.25;;;;;10.98;91.61;98303.03;5075015;28;45489;-61
2024/02/26 01:55:29;;;;;;;;;3.00;2.00;;;;;10.98;91.70;98309.09;5071396;28;45469;-61
2024/02/26 01:57:54;;;;;;;;;5.00;3.00;;;;;11.00;91.19;98307.19;5074513;27;59897;-60
2024/02/26 02:00:20;;;;;;;;;2.00;1.00;;;;;11.01;91.53;98310.66;5074861;27;46575;-61
2024/02/26 02:02:48;;;;;;;;;3.00;1.25;;;;;11.01;91.33;98308.91;5067539;27;45476;-61
2024/02/26 02:05:15;;;;;;;;;3.00;2.00;;;;;11.01;91.33;98308.91;5069169;27;45230;-61
2024/02/26 02:07:40;;;;;;;;;2.25;2.00;;;;;11.00;90.92;98315.06;5068653;27;46788;-61
2024/02/26 02:10:06;;;;;;;;;1.75;1.75;;;;;10.99;91.02;98308.13;5068477;27;45446;-60
2024/02/26 02:12:34;;;;;;;;;2.00;1.75;;;;;11.00;91.24;98317.66;5075172;27;45478;-60
2024/02/26 02:15:00;;;;;;;;;5.00;2.00;;;;;11.01;90.78;98319.38;5070228;27;45521;-59
2024/02/26 02:17:26;;;;;;;;;1.25;1.25;;;;;11.01;91.12;98318.50;5065403;27;46177;-59
2024/02/26 02:19:52;;;;;;;;;3.00;2.00;;;;;11.01;91.18;98321.97;5067249;27;45226;-60
2024/02/26 02:22:18;;;;;;;;;6.00;2.00;;;;;11.01;91.00;98318.50;5072059;27;69255;-60
2024/02/26 02:24:43;;;;;;;;;5.25;3.00;;;;;11.02;90.66;98328.03;5072427;28;45224;-61
2024/02/26 02:27:08;;;;;;;;;4.00;2.00;;;;;11.01;91.05;98319.38;5070574;27;46019;-61
2024/02/26 02:29:34;;;;;;;;;3.75;2.00;;;;;11.02;90.83;98325.41;5065658;27;62785;-61
2024/02/26 02:32:01;;;;;;;;;35.25;28.75;;;;;11.03;90.86;98324.50;5070688;27;68904;-62
2024/02/26 02:34:26;;;;;;;;;37.25;28.25;;;;;11.03;90.35;98327.13;5076137;27;45433;-61
2024/02/26 02:36:52;;;;;;;;;3.75;3.00;;;;;11.04;90.55;98327.94;5070364;27;74367;-61
2024/02/26 02:39:17;;;;;;;;;4.00;2.00;;;;;11.00;90.13;98324.69;5073624;27;45459;-62
2024/02/26 02:41:43;;;;;;;;;2.25;1.75;;;;;11.03;90.33;98332.34;5069607;27;49441;-62
2024/02/26 02:44:09;;;;;;;;;4.00;0.75;;;;;11.00;89.73;98335.16;5068673;27;45519;-61
2024/02/26 02:46:35;;;;;;;;;3.00;0.50;;;;;10.99;89.59;98343.94;5069674;27;75537;-61
2024/02/26 02:49:01;;;;;;;;;4.25;1.25;;;;;10.96;89.90;98341.53;5080171;27;45271;-61
2024/02/26 02:51:26;;;;;;;;;2.50;1.00;;;;;10.95;89.74;98345.09;5071289;27;45576;-61
2024/02/26 02:53:51;;;;;;;;;3.00;2.00;;;;;10.92;89.64;98345.28;5065708;28;73029;-61
2024/02/26 02:56:16;;;;;;;;;3.50;1.00;;;;;10.82;89.58;98334.63;5072641;28;72081;-61
2024/02/26 02:58:42;;;;;;;;;4.50;2.00;;;;;10.85;89.56;98344.84;5067698;27;45350;-61
2024/02/26 03:01:07;;;;;;;;;6.00;1.00;;;;;10.83;89.97;98344.13;5072248;27;45545;-61
2024/02/26 03:03:33;;;;;;;;;2.00;1.00;;;;;10.82;89.46;98342.47;5073612;27;71788;-62
2024/02/26 03:05:58;;;;;;;;;4.75;2.00;;;;;10.84;89.96;98351.06;5061538;27;46317;-61
2024/02/26 03:08:25;;;;;;;;;2.25;1.00;;;;;10.85;89.99;98351.88;5070678;27;73784;-60
2024/02/26 03:10:50;;;;;;;;;4.25;1.00;;;;;10.86;89.67;98349.16;5072570;27;45362;-62
2024/02/26 03:13:16;;;;;;;;;4.00;1.00;;;;;10.90;90.09;98352.41;5070638;27;45330;-62
2024/02/26 03:15:41;;;;;;;;;5.00;2.00;;;;;10.91;89.74;98354.94;5076924;28;51415;-61
2024/02/26 03:18:06;;;;;;;;;5.75;2.00;;;;;10.92;89.55;98364.44;5066638;27;60766;-61
2024/02/26 03:20:32;;;;;;;;;1.00;1.00;;;;;10.94;89.71;98361.72;5072230;27;54994;-61
2024/02/26 03:22:57;;;;;;;;;5.50;2.75;;;;;10.93;89.32;98370.53;5070576;28;61578;-61
2024/02/26 03:25:22;;;;;;;;;3.75;1.75;;;;;10.91;89.32;98368.00;5066573;27;71944;-61
2024/02/26 03:27:48;;;;;;;;;4.25;2.25;;;;;10.93;89.19;98366.13;5050305;27;66180;-61
2024/02/26 03:30:13;;;;;;;;;4.75;0.00;;;;;10.91;89.26;98368.00;5073704;27;63076;-61
2024/02/26 03:32:38;;;;;;;;;2.50;1.75;;;;;10.93;89.10;98375.78;5066465;28;45390;-61
2024/02/26 03:35:04;;;;;;;;;1.00;1.00;;;;;10.94;89.43;98377.44;5076452;27;76422;-62
2024/02/26 03:37:29;;;;;;;;;4.00;1.75;;;;;10.96;89.63;98375.53;5069179;27;45451;-61
2024/02/26 03:39:57;;;;;;;;;2.25;1.00;;;;;10.97;89.16;98385.09;5066516;27;45492;-61
2024/02/26 03:42:22;;;;;;;;;6.00;1.50;;;;;10.97;89.30;98385.09;5074332;27;47164;-62
2024/02/26 03:44:47;;;;;;;;;2.00;1.25;;;;;10.95;89.23;98379.94;5072963;28;49944;-60
2024/02/26 03:47:13;;;;;;;;;4.00;1.00;;;;;10.96;89.11;98388.63;5067143;27;45430;-61
2024/02/26 03:49:38;;;;;;;;;3.25;1.25;;;;;10.97;89.08;98385.09;5067612;27;45151;-61
2024/02/26 03:52:03;;;;;;;;;6.00;2.00;;;;;10.99;89.39;98393.66;5065115;28;72880;-62
2024/02/26 03:54:29;;;;;;;;;4.00;2.00;;;;;11.00;88.88;98400.59;5059499;27;53896;-61
2024/02/26 03:56:54;;;;;;;;;3.00;1.00;;;;;11.01;88.72;98405.72;5065775;28;73140;-61
2024/02/26 03:59:21;;;;;;;;;3.00;0.00;;;;;11.01;88.96;98404.88;5067937;27;69619;-61
2024/02/26 04:01:47;;;;;;;;;1.75;1.75;;;;;11.00;88.93;98409.28;5062255;27;45484;-61
2024/02/26 04:04:12;;;;;;;;;1.50;1.00;;;;;11.01;88.94;98408.34;5067600;27;46849;-61
2024/02/26 04:06:38;;;;;;;;;5.50;1.00;;;;;11.04;89.17;98422.16;5072546;27;45485;-61
2024/02/26 04:09:03;;;;;;;;;3.00;1.75;;;;;11.03;89.27;98426.56;5063305;27;63061;-61
2024/02/26 04:11:29;;;;;;;;;3.00;3.00;;;;;11.02;88.69;98415.22;5075044;27;45456;-61
2024/02/26 04:13:54;;;;;;;;;3.00;2.00;;;;;11.02;88.76;98430.09;5074223;27;46282;-61
2024/02/26 04:16:20;;;;;;;;;4.00;2.00;;;;;11.01;88.63;98429.28;5067294;27;72003;-61
2024/02/26 04:18:45;;;;;;;;;4.00;1.50;;;;;11.02;88.94;98422.25;5065049;27;45699;-62
2024/02/26 04:21:10;;;;;;;;;3.00;1.50;;;;;11.02;88.77;98435.34;5075520;27;59408;-61
2024/02/26 04:23:36;;;;;;;;;5.50;2.00;;;;;11.04;88.60;98435.25;5069630;27;54596;-61
2024/02/26 04:26:01;;;;;;;;;2.50;1.75;;;;;11.05;88.94;98434.28;5077816;27;45391;-61
2024/02/26 04:28:28;;;;;;;;;5.25;1.25;;;;;11.06;88.81;98433.38;5069239;27;54607;-60
2024/02/26 04:30:54;;;;;;;;;39.50;30.00;;;;;11.07;88.67;98432.44;5062958;28;45488;-61
2024/02/26 04:33:19;;;;;;;;;81.50;66.75;;;;;11.05;88.50;98444.75;5064113;27;47949;-61
2024/02/26 04:35:45;;;;;;;;;12.00;7.00;;;;;11.05;88.65;98437.75;5064546;27;71164;-60
2024/02/26 04:38:10;;;;;;;;;2.00;2.00;;;;;11.06;88.32;98443.84;5069915;27;59809;-60
2024/02/26 04:40:35;;;;;;;;;3.00;2.00;;;;;11.05;88.89;98447.38;5069651;27;51017;-59
2024/02/26 04:43:01;;;;;;;;;4.75;1.50;;;;;11.07;88.54;98450.75;5072474;27;46070;-60
2024/02/26 04:45:26;;;;;;;;;5.25;1.25;;;;;11.08;88.64;98452.41;5089966;27;71922;-61
2024/02/26 04:47:51;;;;;;;;;6.00;1.00;;;;;11.07;88.54;98458.59;5075490;27;68272;-60
2024/02/26 04:50:17;;;;;;;;;4.75;1.75;;;;;11.08;88.28;98465.50;5066808;27;72000;-61
2024/02/26 04:52:42;;;;;;;;;3.25;2.00;;;;;11.07;88.31;98456.00;5060688;28;45361;-60
2024/02/26 04:55:07;;;;;;;;;3.00;1.00;;;;;11.06;88.86;98467.38;5067629;28;73153;-62
2024/02/26 04:57:33;;;;;;;;;2.75;2.00;;;;;11.07;88.71;98469.09;5065946;27;45536;-62
2024/02/26 04:59:58;;;;;;;;;3.00;1.75;;;;;11.07;88.53;98475.16;5067714;27;47071;-62
2024/02/26 05:02:24;;;;;;;;;2.00;1.00;;;;;11.08;89.00;98482.03;5069494;27;46080;-62
2024/02/26 05:04:49;;;;;;;;;3.00;2.00;;;;;11.05;88.56;98474.41;5063853;27;45376;-62
2024/02/26 05:07:17;;;;;;;;;2.00;1.00;;;;;11.04;88.94;98485.81;5050470;28;45760;-62
2024/02/26 05:09:43;;;;;;;;;6.25;2.50;;;;;11.04;89.25;98488.41;5067619;27;45455;-62
2024/02/26 05:12:09;;;;;;;;;3.25;1.75;;;;;11.05;88.77;98490.13;5067868;28;45376;-62
2024/02/26 05:14:34;;;;;;;;;4.50;2.00;;;;;11.03;88.82;98489.38;5069406;27;45262;-62
2024/02/26 05:16:59;;;;;;;;;5.50;1.50;;;;;11.00;88.76;98497.41;5064260;28;68343;-62
2024/02/26 05:19:25;;;;;;;;;3.75;2.25;;;;;11.00;88.82;98503.47;5063984;28;45690;-61
2024/02/26 05:21:50;;;;;;;;;1.75;1.25;;;;;11.00;88.46;98502.66;5070793;27;71300;-61
2024/02/26 05:24:17;;;;;;;;;4.00;2.25;;;;;11.01;88.68;98505.19;5072843;27;45344;-61
2024/02/26 05:26:43;;;;;;;;;8.25;2.00;;;;;11.04;88.86;98511.16;5067219;27;45438;-60
2024/02/26 05:29:08;;;;;;;;;2.00;1.00;;;;;11.04;88.59;98517.22;5065426;28;46366;-62
2024/02/26 05:31:33;;;;;;;;;5.75;2.00;;;;;11.06;88.67;98514.50;5065272;27;74556;-61
2024/02/26 05:33:59;;;;;;;;;8.00;2.00;;;;;11.06;88.49;98519.72;5070067;27;46948;-61
2024/02/26 05:36:25;;;;;;;;;2.00;2.00;;;;;11.07;88.47;98516.19;5067708;27;69258;-61
2024/02/26 05:38:50;;;;;;;;;2.00;1.00;;;;;11.06;88.52;98524.97;5058634;28;45347;-62
2024/02/26 05:41:16;;;;;;;;;5.00;2.00;;;;;11.07;88.64;98522.25;5067275;27;46243;-62
2024/02/26 05:43:42;;;;;;;;;3.50;1.00;;;;;11.10;88.36;98534.28;5071146;27;45284;-62
2024/02/26 05:46:08;;;;;;;;;6.00;1.00;;;;;11.10;88.35;98531.69;5075450;27;45472;-62
2024/02/26 05:48:33;;;;;;;;;13.00;8.25;;;;;11.10;88.62;98537.78;5061978;28;45433;-61
2024/02/26 05:50:59;;;;;;;;;23.75;21.00;;;;;11.11;88.71;98536.81;5064530;27;71489;-61
2024/02/26 05:53:24;;;;;;;;;18.00;14.50;;;;;11.11;88.83;98535.97;5068571;27;73000;-61
2024/02/26 05:55:49;;;;;;;;;7.00;4.00;;;;;11.07;88.34;98539.75;5065348;27;69371;-63
2024/02/26 05:58:15;;;;;;;;;3.50;3.00;;;;;11.10;88.02;98544.75;5059336;27;70452;-63
2024/02/26 06:00:40;;;;;;;;;2.00;1.00;;;;;11.08;88.12;98549.25;5061829;27;69350;-62
2024/02/26 06:03:05;;;;;;;;;5.00;1.00;;;;;11.06;88.62;98556.38;5068915;28;45487;-61
2024/02/26 06:05:31;;;;;;;;;6.25;3.75;;;;;11.06;88.48;98565.06;5074655;27;62137;-62
2024/02/26 06:07:56;;;;;;;;;3.50;3.00;;;;;11.05;88.41;98562.53;5075801;27;73209;-61
2024/02/26 06:10:22;;;;;;;;;3.25;1.50;;;;;11.06;88.53;98579.94;5074222;27;46688;-62
2024/02/26 06:12:47;;;;;;;;;7.25;2.75;;;;;11.05;88.08;98567.78;5067618;27;73346;-62
2024/02/26 06:15:13;;;;;;;;;7.75;2.50;;;;;11.05;88.69;98573.88;5065398;27;46815;-63
2024/02/26 06:17:38;;;;;;;;;2.50;2.00;;;;;11.05;88.20;98576.50;5070141;27;69013;-61
2024/02/26 06:20:06;;;;;;;;;3.00;2.25;;;;;11.03;88.24;98588.84;5070306;27;75681;-62
2024/02/26 06:22:31;;;;;;;;;4.00;1.50;;;;;11.01;88.43;98586.31;5076464;28;45406;-61
2024/02/26 06:24:57;;;;;;;;;4.00;2.50;;;;;10.97;87.88;98583.97;5075027;28;45295;-61
2024/02/26 06:27:23;;;;;;;;;5.00;2.00;;;;;10.96;87.90;98587.50;5061531;28;73027;-63
2024/02/26 06:29:49;;;;;;;;;2.00;1.25;;;;;10.95;88.17;98589.31;5063447;27;47156;-61
2024/02/26 06:32:14;;;;;;;;;6.00;1.00;;;;;10.95;88.15;98594.53;5073385;28;45349;-62
2024/02/26 06:34:41;;;;;;;;;3.75;1.75;;;;;10.94;88.22;98600.72;5072549;28;48010;-62
2024/02/26 06:37:07;;;;;;;;;4.00;4.00;;;;;10.94;88.48;98605.97;5064338;28;47344;-62
2024/02/26 06:39:32;;;;;;;;;5.50;2.25;;;;;10.94;88.16;98616.41;5065994;27;45602;-61
2024/02/26 06:42:00;;;;;;;;;7.00;3.00;;;;;10.95;88.62;98617.25;5069844;28;56287;-61
2024/02/26 06:44:31;;;;;;;;;2.75;1.75;;;;;10.95;88.43;98623.31;5066060;27;45395;-62
2024/02/26 06:46:57;;;;;;;;;2.50;2.00;;;;;10.96;88.67;98621.53;5076824;28;45457;-61
2024/02/26 06:49:22;;;;;;;;;5.00;3.50;;;;;10.95;88.65;98625.94;5065727;27;46283;-61
2024/02/26 06:51:47;;;;;;;;;4.00;2.50;;;;;10.97;88.42;98626.69;5074174;27;70915;-63
2024/02/26 06:54:13;;;;;;;;;4.00;3.00;;;;;10.99;88.42;98631.81;5070119;28;55197;-63
2024/02/26 06:56:38;;;;;;;;;3.00;2.75;;;;;10.99;88.90;98632.66;5064018;28;62326;-62
2024/02/26 06:59:03;;;;;;;;;5.75;2.75;;;;;11.01;88.41;98643.03;5072767;28;46604;-63
2024/02/26 07:01:30;;;;;;;;;6.75;2.75;;;;;11.01;88.57;98641.28;5069852;27;70657;-63
2024/02/26 07:03:55;;;;;;;;;5.00;2.50;;;;;11.02;88.57;98648.16;5063287;28;45353;-61
2024/02/26 07:06:21;;;;;;;;;4.50;3.25;;;;;11.02;88.50;98652.56;5062810;28;73028;-63
2024/02/26 07:08:46;;;;;;;;;5.75;2.00;;;;;11.03;88.26;98651.66;5071535;28;73555;-61
2024/02/26 07:11:11;;;;;;;;;5.00;3.00;;;;;11.02;88.68;98650.78;5063156;27;73181;-62
2024/02/26 07:13:37;;;;;;;;;9.00;3.00;;;;;11.05;88.69;98657.63;5066197;28;45377;-63
2024/02/26 07:16:03;;;;;;;;;5.00;3.50;;;;;11.07;88.65;98670.63;5070150;28;45486;-63
2024/02/26 07:18:28;;;;;;;;;2.00;0.75;;;;;11.05;88.29;98673.34;5064552;27;46192;-63
2024/02/26 07:20:53;;;;;;;;;6.75;4.00;;;;;11.07;88.87;98676.69;5066843;27;72192;-63
2024/02/26 07:23:19;;;;;;;;;6.00;2.00;;;;;11.09;88.99;98680.03;5067239;27;63244;-63
2024/02/26 07:25:44;;;;;;;;;7.25;4.00;;;;;11.11;88.65;98683.41;5069763;28;47060;-64
2024/02/26 07:28:09;;;;;;;;;9.25;4.00;;;;;11.11;88.60;98686.03;5063033;28;45393;-62
2024/02/26 07:30:35;;;;;;;;;6.75;5.00;;;;;11.10;88.63;98686.97;5071763;27;67669;-63
2024/02/26 07:33:00;;;;;;;;;5.50;3.75;;;;;11.13;88.31;98693.78;5068593;28;45341;-62
2024/02/26 07:35:27;;;;;;;;;9.25;5.25;;;;;11.14;88.33;98693.69;5070523;28;72121;-60
2024/02/26 07:37:52;;;;;;;;;5.50;3.50;;;;;11.15;88.42;98702.38;5069557;28;46220;-60
2024/02/26 07:40:18;;;;;;;;;5.00;2.75;;;;;11.16;88.71;98702.28;5076645;27;73085;-61
2024/02/26 07:42:45;;;;;;;;;8.00;3.00;;;;;11.16;88.40;98707.53;5068768;27;45442;-59
2024/02/26 07:45:10;;;;;;;;;4.25;2.50;;;;;11.17;88.32;98708.34;5065109;28;45268;-61
2024/02/26 07:47:37;;;;;;;;;4.50;3.00;;;;;11.16;88.13;98715.38;5061984;28;46070;-60
2024/02/26 07:50:03;;;;;;;;;8.00;4.75;;;;;11.17;88.42;98718.81;5072178;27;45426;-65
2024/02/26 07:52:28;;;;;;;;;5.50;4.00;;;;;11.17;88.28;98721.44;5069889;27;45329;-68
2024/02/26 07:54:53;;;;;;;;;9.75;4.00;;;;;11.19;88.10;98728.28;5067577;28;45189;-66
2024/02/26 07:57:21;;;;;;;;;4.50;3.00;;;;;11.20;88.18;98729.13;5059453;28;74154;-66
2024/02/26 07:59:49;;;;;;;;;8.75;4.00;;;;;11.21;87.94;98722.97;5071787;27;45540;-70
2024/02/26 08:02:14;;;;;;;;;6.50;5.00;;;;;11.21;88.29;98733.44;5068729;28;45245;-68
2024/02/26 08:04:40;;;;;;;;;5.00;5.00;;;;;11.20;88.48;98732.56;5071046;28;45508;-69
2024/02/26 08:07:05;;;;;;;;;5.00;4.25;;;;;11.20;88.16;98735.19;5067243;28;75718;-70
2024/02/26 08:09:31;;;;;;;;;5.50;5.25;;;;;11.19;87.91;98743.13;5068184;27;70241;-70
2024/02/26 08:11:56;;;;;;;;;8.75;8.00;;;;;11.16;88.06;98743.34;5066629;28;45366;-69
2024/02/26 08:14:21;;;;;;;;;6.75;5.50;;;;;11.13;87.87;98749.59;5075991;27;69308;-63
2024/02/26 08:16:47;;;;;;;;;5.75;4.00;;;;;11.12;87.58;98754.91;5061851;28;76486;-61
2024/02/26 08:19:14;;;;;;;;;8.75;4.00;;;;;11.12;88.36;98758.41;5073873;28;45306;-65
2024/02/26 08:21:40;;;;;;;;;8.25;4.00;;;;;11.16;87.85;98756.44;5067960;27;45617;-63
2024/02/26 08:24:06;;;;;;;;;5.25;4.25;;;;;11.14;87.96;98753.91;5069985;28;45513;-65
2024/02/26 08:26:31;;;;;;;;;6.25;5.00;;;;;11.19;88.48;98759.72;5081897;27;59989;-69
2024/02/26 08:28:58;;;;;;;;;5.00;4.00;;;;;11.25;88.36;98765.50;5065123;28;59668;-69
2024/02/26 08:31:23;;;;;;;;;5.00;5.00;;;;;11.31;88.06;98767.72;5072947;27;45351;-69
2024/02/26 08:33:48;;;;;;;;;11.00;6.00;;;;;11.37;88.37;98775.22;5073254;28;45497;-68
2024/02/26 08:36:14;;;;;;;;;8.00;5.00;;;;;11.39;87.87;98768.94;5068711;28;51526;-71
2024/02/26 08:38:39;;;;;;;;;5.25;4.00;;;;;11.40;87.73;98775.88;5068887;28;45444;-68
2024/02/26 08:41:05;;;;;;;;;5.50;3.00;;;;;11.37;87.40;98781.28;5069071;28;53587;-66
2024/02/26 08:43:30;;;;;;;;;4.00;1.00;;;;;11.34;87.44;98785.88;5064849;27;45450;-68
2024/02/26 08:45:56;;;;;;;;;4.50;4.25;;;;;11.32;87.72;98785.97;5064168;28;45443;-65
2024/02/26 08:48:22;;;;;;;;;5.50;4.75;;;;;11.35;87.20;98796.25;5064904;28;45445;-68
2024/02/26 08:50:47;;;;;;;;;5.00;3.75;;;;;11.35;87.34;98796.25;5060779;27;67234;-64
2024/02/26 08:53:12;;;;;;;;;6.00;2.50;;;;;11.37;87.61;98796.19;5064008;27;52259;-67
2024/02/26 08:55:38;;;;;;;;;7.25;5.00;;;;;11.38;87.82;98805.69;5074653;27;47125;-64
2024/02/26 08:58:03;;;;;;;;;8.25;3.00;;;;;11.39;88.16;98813.47;5072597;27;45392;-68
2024/02/26 09:00:28;;;;;;;;;4.50;4.00;;;;;11.42;88.22;98811.59;5068717;27;45547;-66
2024/02/26 09:02:54;;;;;;;;;4.00;3.50;;;;;11.44;88.46;98823.66;5072148;27;70258;-67
2024/02/26 09:05:19;;;;;;;;;5.00;3.00;;;;;11.47;88.13;98826.06;5066087;27;45758;-66
2024/02/26 09:07:46;;;;;;;;;6.50;4.50;;;;;11.47;88.37;98833.09;5076676;27;45434;-66
2024/02/26 09:10:11;;;;;;;;;5.00;3.50;;;;;11.43;88.04;98837.69;5076446;28;45368;-67
2024/02/26 09:12:37;;;;;;;;;4.50;3.75;;;;;11.44;88.19;98839.38;5076777;27;45331;-63
2024/02/26 09:15:03;;;;;;;;;4.00;2.75;;;;;11.46;88.47;98841.91;5067390;27;45877;-66
2024/02/26 09:17:29;;;;;;;;;4.00;3.00;;;;;11.52;88.43;98844.97;5074781;28;45790;-61
2024/02/26 09:19:54;;;;;;;;;5.00;2.50;;;;;11.56;88.37;98845.63;5071388;27;68072;-67
2024/02/26 09:22:20;;;;;;;;;3.00;3.00;;;;;11.62;88.55;98850.50;5074768;27;45392;-67
2024/02/26 09:24:45;;;;;;;;;2.75;2.00;;;;;11.72;88.27;98854.25;5067724;27;46220;-68
2024/02/26 09:27:10;;;;;;;;;12.75;10.00;;;;;11.77;88.13;98867.03;5061621;28;52826;-66
2024/02/26 09:29:36;;;;;;;;;5.00;3.25;;;;;11.77;87.79;98864.44;5064938;28;56538;-69
2024/02/26 09:32:01;;;;;;;;;5.00;4.50;;;;;11.78;87.80;98866.97;5064894;27;45675;-62
2024/02/26 09:34:27;;;;;;;;;7.75;6.00;;;;;11.77;87.76;98870.53;5060083;28;75760;-66
2024/02/26 09:36:52;;;;;;;;;7.25;5.25;;;;;11.76;87.41;98871.47;5066685;28;46174;-66
2024/02/26 09:39:21;;;;;;;;;5.50;4.00;;;;;11.82;87.23;98872.00;5067846;27;67279;-67
2024/02/26 09:41:47;;;;;;;;;9.50;6.00;;;;;11.83;87.21;98878.94;5069548;28;45509;-62
2024/02/26 09:44:15;;;;;;;;;6.25;4.25;;;;;11.85;87.46;98883.16;5067910;28;46284;-64
2024/02/26 09:46:41;;;;;;;;;8.25;5.25;;;;;11.88;87.07;98879.47;5071925;28;45248;-66
2024/02/26 09:49:06;;;;;;;;;6.75;6.00;;;;;11.90;87.06;98891.59;5068518;28;68523;-64
2024/02/26 09:51:32;;;;;;;;;7.25;5.00;;;;;11.98;87.39;98895.53;5077192;27;45543;-61
2024/02/26 09:53:59;;;;;;;;;6.00;5.00;;;;;12.01;87.32;98895.34;5073711;28;47011;-67
2024/02/26 09:56:25;;;;;;;;;7.50;6.00;;;;;12.06;87.43;98899.34;5062274;28;45344;-63
2024/02/26 09:58:53;;;;;;;;;4.75;4.00;;;;;12.13;87.04;98905.06;5070489;27;45375;-67
2024/02/26 10:01:19;;;;;;;;;9.50;7.00;;;;;12.18;86.32;98912.63;5074047;27;45559;-65
2024/02/26 10:03:48;;;;;;;;;10.50;7.00;;;;;12.20;86.47;98919.47;5078072;28;46121;-67
2024/02/26 10:06:14;;;;;;;;;8.75;5.75;;;;;12.26;86.08;98920.84;5075209;28;46252;-65
2024/02/26 10:08:40;;;;;;;;;21.75;18.25;;;;;12.30;86.43;98930.22;5062062;28;49358;-72
2024/02/26 10:11:06;;;;;;;;;13.75;12.25;;;;;12.33;86.06;98924.78;5074553;27;46985;-68
2024/02/26 10:13:32;;;;;;;;;11.00;7.50;;;;;12.38;86.18;98929.72;5073542;28;46235;-69
2024/02/26 10:15:58;;;;;;;;;11.25;8.75;;;;;12.41;86.26;98934.78;5065626;27;45387;-66
2024/02/26 10:18:24;;;;;;;;;4.25;4.00;;;;;12.43;85.75;98940.75;5066340;28;45268;-63
2024/02/26 10:21:00;;;;;;;;;10.00;4.75;;;;;12.47;85.57;98943.09;5075039;27;45470;-63
2024/02/26 10:23:26;;;;;;;;;4.00;4.00;;;;;12.49;84.89;98948.25;5064485;28;46172;-63
2024/02/26 10:25:55;;;;;;;;;5.50;4.75;;;;;12.46;85.30;98951.91;5079111;28;45235;-68
2024/02/26 10:28:20;;;;;;;;;6.75;4.25;;;;;12.51;85.33;98955.06;5070827;28;45291;-65
2024/02/26 10:30:46;;;;;;;;;6.50;5.00;;;;;12.59;85.24;98957.22;5067006;28;55052;-69
2024/02/26 10:33:11;;;;;;;;;6.25;6.25;;;;;12.70;84.98;98951.28;5062167;28;47044;-66
2024/02/26 10:35:40;;;;;;;;;6.25;4.50;;;;;12.75;84.67;98959.72;5076468;28;46312;-67
2024/02/26 10:38:06;;;;;;;;;2.00;2.00;;;;;12.79;84.38;98953.31;5061353;28;45476;-66
2024/02/26 10:40:32;;;;;;;;;5.25;4.00;;;;;12.83;84.21;98965.28;5071219;28;45266;-65
2024/02/26 10:42:58;;;;;;;;;5.25;4.50;;;;;12.88;84.19;98963.22;5095006;27;75531;-66
2024/02/26 10:45:23;;;;;;;;;5.00;3.00;;;;;12.84;83.51;98972.25;5070805;28;45451;-64
2024/02/26 10:47:48;;;;;;;;;7.25;4.00;;;;;12.82;83.62;98974.13;5068510;28;69197;-64
2024/02/26 10:50:16;;;;;;;;;3.75;3.00;;;;;12.86;83.43;98980.00;5074972;27;57717;-61
2024/02/26 10:52:42;;;;;;;;;3.00;3.00;;;;;12.86;83.57;98975.59;5075040;27;45735;-61
2024/02/26 10:55:08;;;;;;;;;3.25;3.00;;;;;12.87;83.17;98986.94;5067352;28;45379;-65
2024/02/26 10:57:38;;;;;;;;;2.25;2.25;;;;;12.93;83.28;98989.19;5085259;27;45363;-65
2024/02/26 11:00:04;;;;;;;;;4.25;3.00;;;;;12.98;83.09;98999.38;5076445;27;45413;-65
2024/02/26 11:02:33;;;;;;;;;3.00;3.00;;;;;13.04;83.35;98996.34;5075609;28;45412;-67
2024/02/26 11:04:58;;;;;;;;;3.25;1.50;;;;;13.03;82.40;98994.66;5073121;27;45711;-65
2024/02/26 11:07:25;;;;;;;;;4.25;3.00;;;;;13.01;82.30;99004.44;5070770;27;69126;-64
2024/02/26 11:09:52;;;;;;;;;4.00;2.00;;;;;13.03;82.90;99010.41;5066582;27;45516;-62
2024/02/26 11:12:18;;;;;;;;;3.00;3.00;;;;;13.10;82.68;99014.31;5078219;27;47106;-64
2024/02/26 11:14:46;;;;;;;;;3.00;2.00;;;;;13.16;82.22;99015.72;5067792;28;45389;-65
2024/02/26 11:17:13;;;;;;;;;2.00;2.00;;;;;13.20;81.71;99023.28;5066192;28;45483;-61
2024/02/26 11:19:38;;;;;;;;;1.00;1.00;;;;;13.22;81.70;99018.78;5073607;27;45479;-63
2024/02/26 11:22:04;;;;;;;;;1.00;1.00;;;;;13.18;81.16;99026.97;5092096;27;46189;-66
2024/02/26 11:24:29;;;;;;;;;1.50;1.00;;;;;13.03;80.58;99031.41;5064830;28;70633;-64